Terminal Aerodrome Forecast
Issued by NWS Tulsa, OK

Home | Current Version | Previous Version | Text Only | Print | Product List | Glossary On
Versions: 1 2 3 4 5 6 7 8 9 10 11 12
000
FTUS44 KTSA 281100
TAFTUL
TAF
KTUL 281120Z 2812/2912 16005KT P6SM FEW250
     FM281400 18009KT P6SM SCT250
     FM281700 17011KT P6SM SCT060
     FM290200 15007KT P6SM SCT250
     FM290600 18008KT P6SM SCT070 BKN120 PROB30 2906/2912 5SM -TSRA
      BKN070CB=

USA.gov is the U.S. government's official web portal to all federal, state and local government web resources and services.